Hickory Ridge, Arkansas
Current Conditions -  °F | °C
As of 5:56 AM on Saturday 22 Nov 2014 (Local Time) from KM19 Reporting Station
Overcast Overcast  
Wind Chill: 45°   Ceiling: 5500
Heat Index: 49°   Visibility: 10mi
Dew Point: 48°   Wind: 8mph
Humidity: 96%   Direction: 160°SSE
Pressure: 30.22"   Gusts: NA
Location:  35.4°N, 91°W
Report Text: KM19 221156Z AUTO 16007KT 10SM FEW045 BKN055 OVC100 09/09 A3022 RMK AO2 55007 60000 70011 T00940088 10100 20044 RAE15 P0000 SLP234
Loading
Personal Weather Stations






























Interactive Weather Map New forecast layout! Learn more

10-Day Weather Forecast

Advertisements
Track Severe Weather on mobile